首页
METAR-TAF:

METAR-TAF

机场 :

Naval Air Station Whiting Field North

米尔顿, 佛罗里达州, 美国

纬度: 30-44-00N, 经度: 087-01-00W, 海拔: 60米

当前天气观测

该预报发布于25分钟前的22:04 UTC
风速6节,风向多变
温度 9°C
湿度 93%
气压 1016 hPa
能見度: 2.8公里
多云层高于500英尺
多云层高于3600英尺
阴天层高于4700英尺
大雨, 轻雾

METAR: KNSE 022204Z VRB06KT 1 3/4SM +RA BR BKN005 BKN036 OVC047 09/08 A2999 RMK AO2 PRESRR T00940083 PNO $

时间: 16:29 (22:29 UTC)

预报

预报有效从02日的 15点(UTC)到 03日的 15点(UTC)
风速10节,风向东北
能见度10公里或以上
散云层高于800英尺
多云层高于1500英尺
阴天层高于2500英尺
附近有阵雨
短暂存在
从 02日的 15点(UTC)到 02日的 20点(UTC)
风速13节,风向东北,有时为22节阵风
能見度: 8000
多云层高于800英尺
小雨, 轻雾
从 02日的 2000点(UTC)
风速10节,风向东转东北
能見度: 8000
多云层高于800英尺, 积雨云.
阴天层高于1500英尺
轻雾, 附近有雷暴
短暂存在
从 02日的 20点(UTC)到 03日的 01点(UTC)
风速12节,风向东转东北,有时为20节阵风
能見度: 4800
阴天层高于800英尺
雨, 轻雾
从 03日的 0100点(UTC)
风速10节,风向
能見度: 6000
阴天层高于800英尺
雨, 轻雾
从 03日的 0500点(UTC)
风速12节,风向北转西北,有时为18节阵风
能见度10公里或以上
阴天层高于800英尺
从 03日的 1200点(UTC)
风速8节,风向,有时为12节阵风
能见度10公里或以上
散云层高于500英尺
阴天层高于1000英尺

TAF: KNSE 0215/0315 05010KT 9999 VCSH SCT008 BKN015 OVC025 QNH3006INS TEMPO 0215/0220 05013G22KT 8000 -RA BR BKN008 FM022000 06010KT 8000 BR VCTS BKN008CB OVC015 QNH2994INS TEMPO 0220/0301 06012G20KT 4800 RA BR OVC008 FM030100 36010KT 6000 RA BR OVC008 QNH2993INS FM030500 33012G18KT 9999 OVC008 QNH2995INS FM031200 35008G12KT 9999 SCT005 OVC010 QNH3002INS T11/0220Z T07/0312Z FN20071

超过4000个机场的气象观测和天气预报(METAR&TAF报告)。

可查询的气象台以黄色和红色小点在地图上表示。

将鼠标移到小点上方,可查看气象台名称。

然后点击查看天气观测和预报。

如需切换地图:点击带黑十字的绿色按钮放大地图;点击带横线的绿色按钮缩小地图;或者点击绿色箭头查看邻近地区的地图。


METAR-TAF: